sensor_id;sensor_type;location;lat;lon;timestamp;pressure;altitude;pressure_sealevel;temperature;humidity
44001;BME280;29660;42.892;24.710;2022-12-17T00:02:33;96662.06;;;9.31;100.00
44001;BME280;29660;42.892;24.710;2022-12-17T00:07:58;96744.38;;;10.27;100.00
44001;BME280;29660;42.892;24.710;2022-12-17T00:13:20;96724.59;;;10.61;100.00
44001;BME280;29660;42.892;24.710;2022-12-17T00:18:42;96423.84;;;9.20;100.00
44001;BME280;29660;42.892;24.710;2022-12-17T00:24:02;96648.69;;;10.86;100.00
44001;BME280;29660;42.892;24.710;2022-12-17T00:29:22;96479.56;;;9.90;100.00
44001;BME280;29660;42.892;24.710;2022-12-17T00:34:43;96212.22;;;8.21;100.00
44001;BME280;29660;42.892;24.710;2022-12-17T00:40:04;96695.69;;;11.23;100.00
44001;BME280;29660;42.892;24.710;2022-12-17T00:45:25;96444.81;;;9.54;100.00
44001;BME280;29660;42.892;24.710;2022-12-17T00:50:45;96411.88;;;9.36;100.00
44001;BME280;29660;42.892;24.710;2022-12-17T00:56:05;96421.09;;;9.39;100.00
44001;BME280;29660;42.892;24.710;2022-12-17T01:01:26;96699.06;;;11.15;100.00
44001;BME280;29660;42.892;24.710;2022-12-17T01:06:47;96392.28;;;9.13;100.00
44001;BME280;29660;42.892;24.710;2022-12-17T01:12:07;96447.25;;;9.50;100.00
44001;BME280;29660;42.892;24.710;2022-12-17T01:17:28;96673.84;;;10.79;100.00
44001;BME280;29660;42.892;24.710;2022-12-17T01:22:49;96431.63;;;9.30;100.00
44001;BME280;29660;42.892;24.710;2022-12-17T01:28:09;96639.56;;;10.59;100.00
44001;BME280;29660;42.892;24.710;2022-12-17T01:33:49;96672.97;;;10.70;100.00
44001;BME280;29660;42.892;24.710;2022-12-17T01:39:09;96669.72;;;10.73;100.00
44001;BME280;29660;42.892;24.710;2022-12-17T01:44:52;96689.25;;;10.69;100.00
44001;BME280;29660;42.892;24.710;2022-12-17T01:50:13;96394.22;;;8.75;100.00
44001;BME280;29660;42.892;24.710;2022-12-17T01:55:35;96473.72;;;9.28;100.00
44001;BME280;29660;42.892;24.710;2022-12-17T02:00:56;96668.28;;;10.48;100.00
44001;BME280;29660;42.892;24.710;2022-12-17T02:06:27;96366.44;;;8.48;100.00
44001;BME280;29660;42.892;24.710;2022-12-17T02:12:17;96668.97;;;10.40;100.00
44001;BME280;29660;42.892;24.710;2022-12-17T02:17:48;96370.84;;;8.39;100.00
44001;BME280;29660;42.892;24.710;2022-12-17T02:28:40;96456.88;;;8.81;100.00
44001;BME280;29660;42.892;24.710;2022-12-17T02:34:02;96389.47;;;8.34;100.00
44001;BME280;29660;42.892;24.710;2022-12-17T02:39:24;96688.69;;;10.06;100.00
44001;BME280;29660;42.892;24.710;2022-12-17T02:44:47;96633.31;;;9.71;100.00
44001;BME280;29660;42.892;24.710;2022-12-17T02:50:09;96647.44;;;9.85;100.00
44001;BME280;29660;42.892;24.710;2022-12-17T02:55:30;96646.38;;;9.86;100.00
44001;BME280;29660;42.892;24.710;2022-12-17T03:00:51;96648.97;;;9.91;100.00
44001;BME280;29660;42.892;24.710;2022-12-17T03:06:11;96634.66;;;9.87;100.00
44001;BME280;29660;42.892;24.710;2022-12-17T03:11:33;96328.84;;;7.79;100.00
44001;BME280;29660;42.892;24.710;2022-12-17T03:16:53;96640.13;;;9.77;100.00
44001;BME280;29660;42.892;24.710;2022-12-17T03:22:14;96292.84;;;7.49;100.00
44001;BME280;29660;42.892;24.710;2022-12-17T03:27:34;96351.88;;;7.84;100.00
44001;BME280;29660;42.892;24.710;2022-12-17T03:32:55;96514.44;;;8.72;100.00
44001;BME280;29660;42.892;24.710;2022-12-17T03:38:16;96561.63;;;9.04;100.00
44001;BME280;29660;42.892;24.710;2022-12-17T03:43:36;96322.03;;;7.49;100.00
44001;BME280;29660;42.892;24.710;2022-12-17T03:48:56;96308.78;;;7.25;100.00
44001;BME280;29660;42.892;24.710;2022-12-17T03:54:17;96543.63;;;8.77;100.00
44001;BME280;29660;42.892;24.710;2022-12-17T03:59:38;96578.22;;;8.72;100.00
44001;BME280;29660;42.892;24.710;2022-12-17T04:04:58;96573.72;;;8.48;100.00
44001;BME280;29660;42.892;24.710;2022-12-17T04:10:21;96564.38;;;8.27;100.00
44001;BME280;29660;42.892;24.710;2022-12-17T04:15:41;96571.88;;;8.20;100.00
44001;BME280;29660;42.892;24.710;2022-12-17T04:21:02;96301.44;;;6.25;100.00
44001;BME280;29660;42.892;24.710;2022-12-17T04:26:23;96548.41;;;7.74;100.00
44001;BME280;29660;42.892;24.710;2022-12-17T04:31:44;96511.78;;;7.47;100.00
44001;BME280;29660;42.892;24.710;2022-12-17T04:37:04;96565.84;;;7.85;100.00
44001;BME280;29660;42.892;24.710;2022-12-17T04:42:32;96579.72;;;7.77;100.00
44001;BME280;29660;42.892;24.710;2022-12-17T04:48:00;96538.31;;;7.47;100.00
44001;BME280;29660;42.892;24.710;2022-12-17T04:53:21;96573.38;;;7.73;100.00
44001;BME280;29660;42.892;24.710;2022-12-17T04:58:42;96363.94;;;6.21;100.00
44001;BME280;29660;42.892;24.710;2022-12-17T05:04:03;96484.91;;;6.85;100.00
44001;BME280;29660;42.892;24.710;2022-12-17T05:09:23;96354.00;;;6.02;100.00
44001;BME280;29660;42.892;24.710;2022-12-17T05:14:44;96545.09;;;7.24;100.00
44001;BME280;29660;42.892;24.710;2022-12-17T05:20:05;96313.41;;;5.68;100.00
44001;BME280;29660;42.892;24.710;2022-12-17T05:25:25;96508.81;;;6.80;100.00
44001;BME280;29660;42.892;24.710;2022-12-17T05:30:53;96463.09;;;6.54;100.00
44001;BME280;29660;42.892;24.710;2022-12-17T05:36:14;96570.34;;;7.11;100.00
44001;BME280;29660;42.892;24.710;2022-12-17T05:41:35;96342.19;;;5.79;100.00
44001;BME280;29660;42.892;24.710;2022-12-17T05:46:55;96549.09;;;7.21;100.00
44001;BME280;29660;42.892;24.710;2022-12-17T05:52:16;96584.09;;;7.92;100.00
44001;BME280;29660;42.892;24.710;2022-12-17T05:57:36;96620.44;;;8.78;100.00
44001;BME280;29660;42.892;24.710;2022-12-17T06:03:02;96345.63;;;7.94;100.00
44001;BME280;29660;42.892;24.710;2022-12-17T06:08:23;96547.84;;;9.53;100.00
44001;BME280;29660;42.892;24.710;2022-12-17T06:13:44;96457.88;;;9.04;100.00
44001;BME280;29660;42.892;24.710;2022-12-17T06:19:04;96603.91;;;9.95;100.00
44001;BME280;29660;42.892;24.710;2022-12-17T06:24:25;96561.41;;;9.71;100.00
44001;BME280;29660;42.892;24.710;2022-12-17T06:29:51;96576.13;;;10.15;100.00
44001;BME280;29660;42.892;24.710;2022-12-17T06:35:17;96611.09;;;11.10;100.00
44001;BME280;29660;42.892;24.710;2022-12-17T06:40:38;96625.75;;;11.71;100.00
44001;BME280;29660;42.892;24.710;2022-12-17T06:45:58;96620.69;;;12.28;97.07
44001;BME280;29660;42.892;24.710;2022-12-17T06:51:19;96631.56;;;12.71;92.87
44001;BME280;29660;42.892;24.710;2022-12-17T06:56:40;96396.06;;;11.40;92.65
44001;BME280;29660;42.892;24.710;2022-12-17T07:02:00;96535.69;;;12.65;90.49
44001;BME280;29660;42.892;24.710;2022-12-17T07:07:21;96658.75;;;13.62;88.63
44001;BME280;29660;42.892;24.710;2022-12-17T07:12:41;96585.31;;;13.45;87.45
44001;BME280;29660;42.892;24.710;2022-12-17T07:18:03;96391.41;;;12.51;83.27
44001;BME280;29660;42.892;24.710;2022-12-17T07:23:23;96475.31;;;13.16;83.63
44001;BME280;29660;42.892;24.710;2022-12-17T07:28:44;96659.44;;;14.66;81.68
44001;BME280;29660;42.892;24.710;2022-12-17T07:34:04;96275.47;;;12.38;79.05
44001;BME280;29660;42.892;24.710;2022-12-17T07:39:24;96467.22;;;13.77;79.22
44001;BME280;29660;42.892;24.710;2022-12-17T07:44:45;96567.75;;;14.56;74.62
44001;BME280;29660;42.892;24.710;2022-12-17T07:50:05;96697.31;;;15.71;74.75
44001;BME280;29660;42.892;24.710;2022-12-17T07:55:26;96526.97;;;14.71;69.76
44001;BME280;29660;42.892;24.710;2022-12-17T08:00:47;96742.75;;;16.35;68.64
44001;BME280;29660;42.892;24.710;2022-12-17T08:06:07;96533.31;;;15.17;69.50
44001;BME280;29660;42.892;24.710;2022-12-17T08:11:29;96547.31;;;15.43;67.26
44001;BME280;29660;42.892;24.710;2022-12-17T08:16:50;96783.81;;;16.99;67.20
44001;BME280;29660;42.892;24.710;2022-12-17T08:22:10;96607.88;;;16.04;63.42
44001;BME280;29660;42.892;24.710;2022-12-17T08:27:31;96536.16;;;15.54;65.59
44001;BME280;29660;42.892;24.710;2022-12-17T08:32:51;96847.78;;;17.35;60.70
44001;BME280;29660;42.892;24.710;2022-12-17T08:38:12;96843.69;;;16.41;59.78
44001;BME280;29660;42.892;24.710;2022-12-17T08:43:33;96720.16;;;14.88;61.57
44001;BME280;29660;42.892;24.710;2022-12-17T08:48:54;96905.69;;;16.24;62.75
44001;BME280;29660;42.892;24.710;2022-12-17T08:54:14;96937.09;;;16.41;59.86
44001;BME280;29660;42.892;24.710;2022-12-17T08:59:34;96695.31;;;14.18;61.03
44001;BME280;29660;42.892;24.710;2022-12-17T09:04:55;96868.97;;;14.79;63.46
44001;BME280;29660;42.892;24.710;2022-12-17T09:10:21;96871.34;;;14.63;65.52
44001;BME280;29660;42.892;24.710;2022-12-17T09:15:41;96668.19;;;13.33;65.43
44001;BME280;29660;42.892;24.710;2022-12-17T09:21:02;96431.47;;;12.25;65.18
44001;BME280;29660;42.892;24.710;2022-12-17T09:26:22;96696.28;;;13.79;64.14
44001;BME280;29660;42.892;24.710;2022-12-17T09:31:43;96685.09;;;13.86;64.55
44001;BME280;29660;42.892;24.710;2022-12-17T09:37:04;96888.97;;;15.07;64.72
44001;BME280;29660;42.892;24.710;2022-12-17T09:42:33;96840.97;;;14.88;64.67
44001;BME280;29660;42.892;24.710;2022-12-17T09:48:19;96769.50;;;14.23;65.20
44001;BME280;29660;42.892;24.710;2022-12-17T09:53:45;96810.97;;;13.51;67.33
44001;BME280;29660;42.892;24.710;2022-12-17T09:59:18;96814.69;;;12.79;71.46
44001;BME280;29660;42.892;24.710;2022-12-17T10:04:41;96645.41;;;11.16;72.53
44001;BME280;29660;42.892;24.710;2022-12-17T10:10:26;96690.38;;;10.81;74.22
44001;BME280;29660;42.892;24.710;2022-12-17T10:15:49;96861.97;;;11.10;74.79
44001;BME280;29660;42.892;24.710;2022-12-17T10:21:10;96970.44;;;11.98;76.10
44001;BME280;29660;42.892;24.710;2022-12-17T10:26:33;96695.66;;;10.54;75.25
44001;BME280;29660;42.892;24.710;2022-12-17T10:31:57;96759.94;;;10.85;75.78
44001;BME280;29660;42.892;24.710;2022-12-17T10:37:19;96771.19;;;10.82;75.42
44001;BME280;29660;42.892;24.710;2022-12-17T10:42:40;97033.34;;;12.65;77.49
44001;BME280;29660;42.892;24.710;2022-12-17T10:48:00;97031.56;;;12.74;76.48
44001;BME280;29660;42.892;24.710;2022-12-17T10:53:23;97008.56;;;12.59;76.40
44001;BME280;29660;42.892;24.710;2022-12-17T10:59:10;97053.97;;;12.50;78.21
44001;BME280;29660;42.892;24.710;2022-12-17T11:04:35;97034.50;;;12.72;78.37
44001;BME280;29660;42.892;24.710;2022-12-17T11:09:57;96976.56;;;12.68;78.55
44001;BME280;29660;42.892;24.710;2022-12-17T11:15:37;96942.72;;;12.86;79.28
44001;BME280;29660;42.892;24.710;2022-12-17T11:21:34;97006.53;;;13.73;79.30
44001;BME280;29660;42.892;24.710;2022-12-17T11:27:01;96770.94;;;12.61;78.12
44001;BME280;29660;42.892;24.710;2022-12-17T11:32:50;96780.50;;;12.76;78.81
44001;BME280;29660;42.892;24.710;2022-12-17T12:00:22;97090.00;;;13.81;87.61
44001;BME280;29660;42.892;24.710;2022-12-17T12:05:49;97006.31;;;13.39;92.53
44001;BME280;29660;42.892;24.710;2022-12-17T12:11:50;96662.22;;;11.17;94.13
44001;BME280;29660;42.892;24.710;2022-12-17T12:17:22;97071.41;;;13.84;97.25
44001;BME280;29660;42.892;24.710;2022-12-17T12:28:33;96847.31;;;13.35;100.00
44001;BME280;29660;42.892;24.710;2022-12-17T12:34:20;96800.94;;;13.25;97.96
44001;BME280;29660;42.892;24.710;2022-12-17T12:50:59;96960.41;;;14.91;94.09
44001;BME280;29660;42.892;24.710;2022-12-17T12:56:35;96996.56;;;15.28;92.43
44001;BME280;29660;42.892;24.710;2022-12-17T13:01:55;96996.72;;;15.32;93.49
44001;BME280;29660;42.892;24.710;2022-12-17T13:07:25;97012.84;;;15.32;95.28
44001;BME280;29660;42.892;24.710;2022-12-17T13:18:36;96745.00;;;13.64;95.77
44001;BME280;29660;42.892;24.710;2022-12-17T13:28:31;96802.53;;;13.75;98.71
44001;BME280;29660;42.892;24.710;2022-12-17T13:33:59;96969.53;;;14.72;99.22
44001;BME280;29660;42.892;24.710;2022-12-17T13:44:38;96728.34;;;13.05;98.71
44001;BME280;29660;42.892;24.710;2022-12-17T13:49:49;96801.78;;;13.43;99.67
44001;BME280;29660;42.892;24.710;2022-12-17T13:55:37;96814.72;;;13.41;100.00
44001;BME280;29660;42.892;24.710;2022-12-17T14:00:39;96767.56;;;13.00;98.89
44001;BME280;29660;42.892;24.710;2022-12-17T14:05:43;97009.38;;;14.39;100.00
44001;BME280;29660;42.892;24.710;2022-12-17T14:10:49;96794.59;;;12.90;100.00
44001;BME280;29660;42.892;24.710;2022-12-17T14:15:52;97019.84;;;14.18;100.00
44001;BME280;29660;42.892;24.710;2022-12-17T14:20:55;97026.53;;;13.98;100.00
44001;BME280;29660;42.892;24.710;2022-12-17T14:25:58;96647.56;;;11.28;100.00
44001;BME280;29660;42.892;24.710;2022-12-17T14:31:17;97086.59;;;13.89;100.00
44001;BME280;29660;42.892;24.710;2022-12-17T14:36:29;96669.03;;;11.09;100.00
44001;BME280;29660;42.892;24.710;2022-12-17T14:41:36;96835.81;;;11.94;100.00
44001;BME280;29660;42.892;24.710;2022-12-17T14:47:11;97135.72;;;13.62;100.00
44001;BME280;29660;42.892;24.710;2022-12-17T14:52:35;96973.91;;;12.54;100.00
44001;BME280;29660;42.892;24.710;2022-12-17T14:57:38;97074.53;;;12.91;100.00
44001;BME280;29660;42.892;24.710;2022-12-17T15:02:42;96996.13;;;12.27;99.61
44001;BME280;29660;42.892;24.710;2022-12-17T15:07:45;97012.41;;;11.84;100.00
44001;BME280;29660;42.892;24.710;2022-12-17T15:12:47;96890.88;;;10.70;100.00
44001;BME280;29660;42.892;24.710;2022-12-17T15:17:52;96976.16;;;10.94;100.00
44001;BME280;29660;42.892;24.710;2022-12-17T15:23:15;97192.38;;;11.93;100.00
44001;BME280;29660;42.892;24.710;2022-12-17T15:28:19;97202.06;;;11.89;100.00
44001;BME280;29660;42.892;24.710;2022-12-17T15:33:21;97213.19;;;11.53;100.00
44001;BME280;29660;42.892;24.710;2022-12-17T15:38:23;96955.69;;;9.50;100.00
44001;BME280;29660;42.892;24.710;2022-12-17T15:43:25;97241.28;;;11.27;100.00
44001;BME280;29660;42.892;24.710;2022-12-17T15:48:27;97267.75;;;11.23;100.00
44001;BME280;29660;42.892;24.710;2022-12-17T15:53:30;97040.75;;;9.71;100.00
44001;BME280;29660;42.892;24.710;2022-12-17T15:58:50;97226.03;;;10.85;100.00
44001;BME280;29660;42.892;24.710;2022-12-17T16:03:52;97284.16;;;11.12;100.00
44001;BME280;29660;42.892;24.710;2022-12-17T16:08:54;97056.78;;;9.61;100.00
44001;BME280;29660;42.892;24.710;2022-12-17T16:14:15;97058.72;;;9.55;97.19
44001;BME280;29660;42.892;24.710;2022-12-17T16:19:20;97325.63;;;11.33;97.75
44001;BME280;29660;42.892;24.710;2022-12-17T16:24:22;97097.13;;;9.78;98.89
44001;BME280;29660;42.892;24.710;2022-12-17T16:29:24;97282.50;;;10.92;99.00
44001;BME280;29660;42.892;24.710;2022-12-17T16:34:26;97098.25;;;9.67;98.86
44001;BME280;29660;42.892;24.710;2022-12-17T16:39:28;97147.59;;;9.98;97.78
44001;BME280;29660;42.892;24.710;2022-12-17T16:44:30;97200.16;;;10.22;98.15
44001;BME280;29660;42.892;24.710;2022-12-17T16:49:32;97339.56;;;10.96;98.76
44001;BME280;29660;42.892;24.710;2022-12-17T16:54:34;97376.47;;;11.18;99.16
44001;BME280;29660;42.892;24.710;2022-12-17T16:59:36;97388.56;;;11.10;100.00
44001;BME280;29660;42.892;24.710;2022-12-17T17:04:38;97385.94;;;11.05;100.00
44001;BME280;29660;42.892;24.710;2022-12-17T17:09:40;97358.00;;;10.92;100.00
44001;BME280;29660;42.892;24.710;2022-12-17T17:14:42;97243.53;;;10.32;98.91
44001;BME280;29660;42.892;24.710;2022-12-17T17:19:45;97435.81;;;11.39;97.07
44001;BME280;29660;42.892;24.710;2022-12-17T17:24:46;97426.53;;;11.36;95.17
44001;BME280;29660;42.892;24.710;2022-12-17T17:29:49;97327.19;;;10.76;94.54
44001;BME280;29660;42.892;24.710;2022-12-17T17:34:51;97283.59;;;10.62;94.48
44001;BME280;29660;42.892;24.710;2022-12-17T17:39:53;97416.75;;;11.50;93.35
44001;BME280;29660;42.892;24.710;2022-12-17T17:44:55;97396.16;;;11.27;91.13
44001;BME280;29660;42.892;24.710;2022-12-17T17:49:57;97258.25;;;10.25;90.76
44001;BME280;29660;42.892;24.710;2022-12-17T17:54:59;97196.78;;;9.67;91.77
44001;BME280;29660;42.892;24.710;2022-12-17T18:00:01;97406.03;;;10.97;92.28
44001;BME280;29660;42.892;24.710;2022-12-17T18:05:06;97247.53;;;9.91;92.68
44001;BME280;29660;42.892;24.710;2022-12-17T18:10:08;97153.34;;;9.27;93.46
44001;BME280;29660;42.892;24.710;2022-12-17T18:15:10;97457.66;;;11.17;93.25
44001;BME280;29660;42.892;24.710;2022-12-17T18:20:16;97216.59;;;9.55;93.65
44001;BME280;29660;42.892;24.710;2022-12-17T18:25:18;97192.47;;;9.31;93.69
44001;BME280;29660;42.892;24.710;2022-12-17T18:30:20;97473.69;;;11.12;93.79
44001;BME280;29660;42.892;24.710;2022-12-17T18:35:22;97371.28;;;10.19;93.38
44001;BME280;29660;42.892;24.710;2022-12-17T18:40:25;97456.94;;;10.56;94.29
44001;BME280;29660;42.892;24.710;2022-12-17T18:45:51;97142.47;;;8.48;93.97
44001;BME280;29660;42.892;24.710;2022-12-17T18:50:53;97260.91;;;9.10;94.44
44001;BME280;29660;42.892;24.710;2022-12-17T18:56:10;97500.69;;;10.61;95.08
44001;BME280;29660;42.892;24.710;2022-12-17T19:01:20;97489.03;;;10.46;95.03
44001;BME280;29660;42.892;24.710;2022-12-17T19:06:24;97526.56;;;10.65;95.88
44001;BME280;29660;42.892;24.710;2022-12-17T19:11:26;97369.31;;;9.80;94.79
44001;BME280;29660;42.892;24.710;2022-12-17T19:16:28;97479.69;;;10.44;95.56
44001;BME280;29660;42.892;24.710;2022-12-17T19:21:32;97525.72;;;10.70;95.53
44001;BME280;29660;42.892;24.710;2022-12-17T19:26:34;97251.13;;;8.91;95.08
44001;BME280;29660;42.892;24.710;2022-12-17T19:31:36;97371.47;;;9.73;94.65
44001;BME280;29660;42.892;24.710;2022-12-17T19:36:39;97563.00;;;10.80;95.25
44001;BME280;29660;42.892;24.710;2022-12-17T19:41:42;97322.06;;;9.36;94.95
44001;BME280;29660;42.892;24.710;2022-12-17T19:46:44;97274.78;;;8.97;95.68
44001;BME280;29660;42.892;24.710;2022-12-17T19:51:46;97537.50;;;10.59;96.66
44001;BME280;29660;42.892;24.710;2022-12-17T19:56:49;97445.97;;;10.03;95.97
44001;BME280;29660;42.892;24.710;2022-12-17T20:01:52;97366.78;;;9.44;95.37
44001;BME280;29660;42.892;24.710;2022-12-17T20:06:55;97544.53;;;10.34;96.08
44001;BME280;29660;42.892;24.710;2022-12-17T20:11:57;97587.09;;;10.60;96.22
44001;BME280;29660;42.892;24.710;2022-12-17T20:17:00;97368.94;;;9.22;96.34
44001;BME280;29660;42.892;24.710;2022-12-17T20:22:04;97517.38;;;10.12;97.44
44001;BME280;29660;42.892;24.710;2022-12-17T20:27:06;97559.44;;;10.35;97.56
44001;BME280;29660;42.892;24.710;2022-12-17T20:32:09;97351.69;;;9.04;97.51
44001;BME280;29660;42.892;24.710;2022-12-17T20:37:12;97582.84;;;10.59;97.35
44001;BME280;29660;42.892;24.710;2022-12-17T20:42:17;97398.19;;;9.37;97.23
44001;BME280;29660;42.892;24.710;2022-12-17T20:47:19;97609.00;;;10.51;98.14
44001;BME280;29660;42.892;24.710;2022-12-17T20:52:21;97396.88;;;9.14;98.34
44001;BME280;29660;42.892;24.710;2022-12-17T20:57:23;97441.31;;;9.34;99.72
44001;BME280;29660;42.892;24.710;2022-12-17T21:02:25;97379.59;;;8.91;99.08
44001;BME280;29660;42.892;24.710;2022-12-17T21:07:27;97578.94;;;10.10;100.00
44001;BME280;29660;42.892;24.710;2022-12-17T21:12:29;97613.03;;;10.23;100.00
44001;BME280;29660;42.892;24.710;2022-12-17T21:17:51;97389.69;;;8.79;100.00
44001;BME280;29660;42.892;24.710;2022-12-17T21:22:53;97366.03;;;8.62;100.00
44001;BME280;29660;42.892;24.710;2022-12-17T21:27:56;97388.91;;;8.78;100.00
44001;BME280;29660;42.892;24.710;2022-12-17T21:32:58;97641.84;;;10.42;100.00
44001;BME280;29660;42.892;24.710;2022-12-17T21:38:00;97608.50;;;10.24;100.00
44001;BME280;29660;42.892;24.710;2022-12-17T21:43:02;97573.06;;;9.98;100.00
44001;BME280;29660;42.892;24.710;2022-12-17T21:48:23;97363.63;;;8.60;100.00
44001;BME280;29660;42.892;24.710;2022-12-17T21:53:25;97372.94;;;8.68;100.00
44001;BME280;29660;42.892;24.710;2022-12-17T21:58:27;97449.00;;;9.00;100.00
44001;BME280;29660;42.892;24.710;2022-12-17T22:03:29;97387.78;;;8.44;100.00
44001;BME280;29660;42.892;24.710;2022-12-17T22:08:31;97357.66;;;8.02;100.00
44001;BME280;29660;42.892;24.710;2022-12-17T22:13:33;97430.00;;;8.35;100.00
44001;BME280;29660;42.892;24.710;2022-12-17T22:18:53;97688.44;;;9.73;100.00
44001;BME280;29660;42.892;24.710;2022-12-17T22:23:55;97395.19;;;7.63;100.00
44001;BME280;29660;42.892;24.710;2022-12-17T22:28:57;97642.75;;;9.08;100.00
44001;BME280;29660;42.892;24.710;2022-12-17T22:34:01;97429.03;;;7.46;100.00
44001;BME280;29660;42.892;24.710;2022-12-17T22:39:23;97718.06;;;9.14;100.00
44001;BME280;29660;42.892;24.710;2022-12-17T22:44:45;97658.78;;;8.66;100.00
44001;BME280;29660;42.892;24.710;2022-12-17T22:49:54;97728.41;;;9.05;100.00
44001;BME280;29660;42.892;24.710;2022-12-17T22:54:56;97472.91;;;7.22;100.00
44001;BME280;29660;42.892;24.710;2022-12-17T22:59:58;97738.16;;;8.89;100.00
44001;BME280;29660;42.892;24.710;2022-12-17T23:05:00;97503.94;;;7.21;100.00
44001;BME280;29660;42.892;24.710;2022-12-17T23:10:03;97739.06;;;8.68;100.00
44001;BME280;29660;42.892;24.710;2022-12-17T23:15:06;97784.91;;;8.80;100.00
44001;BME280;29660;42.892;24.710;2022-12-17T23:20:08;97679.16;;;8.18;100.00
44001;BME280;29660;42.892;24.710;2022-12-17T23:25:10;97709.44;;;8.17;100.00
44001;BME280;29660;42.892;24.710;2022-12-17T23:30:14;97554.09;;;7.23;100.00
44001;BME280;29660;42.892;24.710;2022-12-17T23:35:17;97560.16;;;7.18;100.00
44001;BME280;29660;42.892;24.710;2022-12-17T23:40:20;97716.38;;;8.18;100.00
44001;BME280;29660;42.892;24.710;2022-12-17T23:45:22;97681.91;;;7.96;100.00
44001;BME280;29660;42.892;24.710;2022-12-17T23:50:24;97496.91;;;6.78;100.00
44001;BME280;29660;42.892;24.710;2022-12-17T23:55:26;97524.63;;;6.92;100.00
